createdAt,value
2023-04-29T00:00:40.640Z,9.77
2023-04-29T00:03:09.416Z,11.55
2023-04-29T00:05:37.886Z,11.18
2023-04-29T00:08:06.611Z,11.80
2023-04-29T00:10:35.266Z,11.75
2023-04-29T00:13:04.976Z,12.60
2023-04-29T00:15:33.211Z,10.20
2023-04-29T00:18:01.730Z,11.40
2023-04-29T00:20:29.978Z,11.60
2023-04-29T00:22:58.436Z,12.02
2023-04-29T00:25:27.135Z,10.07
2023-04-29T00:27:55.387Z,11.82
2023-04-29T00:30:24.935Z,13.02
2023-04-29T00:32:53.406Z,11.57
2023-04-29T00:35:21.644Z,12.85
2023-04-29T00:37:49.963Z,12.07
2023-04-29T00:40:18.443Z,10.57
2023-04-29T00:42:46.646Z,10.93
2023-04-29T00:45:14.879Z,11.13
2023-04-29T00:47:44.928Z,11.35
2023-04-29T00:50:13.519Z,12.48
2023-04-29T00:52:41.753Z,10.35
2023-04-29T00:55:10.374Z,11.13
2023-04-29T00:57:39.256Z,11.88
2023-04-29T01:00:10.205Z,11.35
2023-04-29T01:02:39.392Z,10.50
2023-04-29T01:05:09.459Z,18.48
2023-04-29T01:07:47.005Z,15.38
2023-04-29T01:10:19.474Z,18.70
2023-04-29T01:12:55.438Z,14.52
2023-04-29T01:15:34.241Z,12.43
2023-04-29T01:18:08.151Z,15.52
2023-04-29T01:20:38.960Z,11.32
2023-04-29T01:23:07.290Z,12.13
2023-04-29T01:25:38.331Z,11.98
2023-04-29T01:28:27.212Z,12.90
2023-04-29T01:31:04.743Z,13.05
2023-04-29T01:33:42.948Z,11.68
2023-04-29T01:36:22.486Z,13.32
2023-04-29T01:38:59.132Z,11.98
2023-04-29T01:41:40.193Z,12.77
2023-04-29T01:44:19.752Z,11.90
2023-04-29T01:46:54.018Z,11.85
2023-04-29T01:49:26.509Z,11.25
2023-04-29T01:51:54.791Z,13.88
2023-04-29T01:54:23.316Z,10.60
2023-04-29T01:56:53.222Z,10.45
2023-04-29T01:59:32.497Z,11.55
2023-04-29T02:02:21.231Z,13.23
2023-04-29T02:04:57.988Z,11.55
2023-04-29T02:07:26.488Z,11.77
2023-04-29T02:09:55.090Z,14.13
2023-04-29T02:12:25.948Z,10.75
2023-04-29T02:14:54.850Z,9.88
2023-04-29T02:17:23.255Z,10.40
2023-04-29T02:19:51.849Z,10.00
2023-04-29T02:22:21.006Z,11.02
2023-04-29T02:24:49.408Z,9.85
2023-04-29T02:27:18.164Z,9.25
2023-04-29T02:29:47.871Z,9.88
2023-04-29T02:32:16.245Z,8.75
2023-04-29T02:34:44.912Z,9.70
2023-04-29T02:37:13.200Z,9.18
2023-04-29T02:39:41.483Z,10.10
2023-04-29T02:42:09.652Z,11.18
2023-04-29T02:44:38.032Z,16.33
2023-04-29T02:47:07.616Z,8.98
2023-04-29T02:49:54.930Z,10.77
2023-04-29T02:52:42.417Z,9.13
2023-04-29T02:55:11.049Z,8.75
2023-04-29T02:57:39.230Z,9.02
2023-04-29T03:00:09.085Z,10.80
2023-04-29T03:02:39.015Z,9.00
2023-04-29T03:05:08.131Z,9.70
2023-04-29T03:07:36.314Z,12.18
2023-04-29T03:10:04.918Z,11.60
2023-04-29T03:12:34.788Z,14.60
2023-04-29T03:15:03.491Z,11.07
2023-04-29T03:17:32.075Z,9.85
2023-04-29T03:20:01.734Z,10.32
2023-04-29T03:22:30.212Z,13.38
2023-04-29T03:24:58.485Z,10.63
2023-04-29T03:27:27.961Z,10.75
2023-04-29T03:29:56.780Z,11.75
2023-04-29T03:32:25.447Z,10.73
2023-04-29T03:34:54.662Z,9.82
2023-04-29T03:37:44.703Z,10.95
2023-04-29T03:40:25.500Z,10.98
2023-04-29T03:42:54.370Z,13.63
2023-04-29T03:45:22.697Z,11.98
2023-04-29T03:47:50.976Z,9.77
2023-04-29T03:50:19.475Z,9.80
2023-04-29T03:52:50.354Z,10.18
2023-04-29T03:55:20.163Z,9.50
2023-04-29T03:57:49.114Z,8.88
2023-04-29T04:00:19.848Z,9.23
2023-04-29T04:02:54.192Z,15.48
2023-04-29T04:05:25.271Z,9.05
2023-04-29T04:08:03.447Z,11.25
2023-04-29T04:10:54.758Z,10.90
2023-04-29T04:13:43.560Z,10.05
2023-04-29T04:16:12.573Z,11.45
2023-04-29T04:18:41.455Z,10.05
2023-04-29T04:21:11.346Z,10.07
2023-04-29T04:23:44.009Z,11.20
2023-04-29T04:26:14.948Z,9.85
2023-04-29T04:29:06.453Z,12.70
2023-04-29T04:31:46.992Z,12.05
2023-04-29T04:34:16.971Z,13.10
2023-04-29T04:36:47.148Z,11.57
2023-04-29T04:39:16.674Z,12.60
2023-04-29T04:41:44.916Z,10.07
2023-04-29T04:44:13.394Z,11.85
2023-04-29T04:47:02.308Z,10.18
2023-04-29T04:49:53.614Z,11.60
2023-04-29T04:52:23.179Z,11.27
2023-04-29T04:55:15.097Z,13.07
2023-04-29T04:57:46.427Z,12.43
2023-04-29T05:00:15.368Z,11.63
2023-04-29T05:02:43.837Z,11.05
2023-04-29T05:05:12.146Z,13.90
2023-04-29T05:07:42.705Z,17.90
2023-04-29T05:10:12.710Z,14.45
2023-04-29T05:12:49.601Z,14.18
2023-04-29T05:15:19.164Z,15.93
2023-04-29T05:17:49.862Z,17.15
2023-04-29T05:20:18.182Z,15.50
2023-04-29T05:22:46.427Z,17.52
2023-04-29T05:25:16.994Z,19.25
2023-04-29T05:27:45.251Z,17.60
2023-04-29T05:30:17.950Z,18.48
2023-04-29T05:32:48.887Z,17.95
2023-04-29T05:35:19.508Z,21.85
2023-04-29T05:37:48.171Z,15.77
2023-04-29T05:40:25.856Z,17.88
2023-04-29T05:43:00.101Z,16.90
2023-04-29T05:45:28.306Z,18.80
2023-04-29T05:47:56.922Z,17.17
2023-04-29T05:50:25.740Z,16.52
2023-04-29T05:52:54.763Z,16.52
2023-04-29T05:55:25.695Z,16.02
2023-04-29T05:57:53.945Z,18.73
2023-04-29T06:00:22.338Z,13.80
2023-04-29T06:02:58.725Z,13.75
2023-04-29T06:05:29.478Z,15.73
2023-04-29T06:08:16.440Z,15.80
2023-04-29T06:10:48.061Z,14.52
2023-04-29T06:13:17.097Z,14.43
2023-04-29T06:15:45.890Z,14.50
2023-04-29T06:18:15.701Z,12.18
2023-04-29T06:20:44.434Z,15.48
2023-04-29T06:23:12.753Z,12.02
2023-04-29T06:25:41.138Z,12.90
2023-04-29T06:28:12.254Z,15.77
2023-04-29T06:30:40.545Z,12.02
2023-04-29T06:33:09.716Z,11.77
2023-04-29T06:35:40.739Z,14.40
2023-04-29T06:38:24.741Z,12.85
2023-04-29T06:41:13.120Z,11.18
2023-04-29T06:44:19.389Z,11.95
2023-04-29T06:47:01.336Z,12.18
2023-04-29T06:49:50.072Z,12.80
2023-04-29T06:52:18.802Z,12.32
2023-04-29T06:54:48.200Z,15.55
2023-04-29T06:57:16.408Z,12.63
2023-04-29T06:59:49.188Z,12.25
2023-04-29T07:02:17.525Z,12.23
2023-04-29T07:04:49.712Z,16.35
2023-04-29T07:07:18.121Z,12.10
2023-04-29T07:09:46.414Z,13.95
2023-04-29T07:12:14.571Z,12.38
2023-04-29T07:14:43.136Z,12.30
2023-04-29T07:17:14.240Z,16.17
2023-04-29T07:19:43.546Z,14.75
2023-04-29T07:22:12.412Z,16.55
2023-04-29T07:24:40.639Z,12.90
2023-04-29T07:27:08.923Z,13.32
2023-04-29T07:29:38.609Z,15.55
2023-04-29T07:32:07.064Z,15.30
2023-04-29T07:34:38.837Z,15.00
2023-04-29T07:37:07.058Z,15.73
2023-04-29T07:39:35.720Z,15.48
2023-04-29T07:42:04.964Z,13.40
2023-04-29T07:44:33.285Z,14.07
2023-04-29T07:47:01.567Z,14.33
2023-04-29T07:49:29.829Z,13.00
2023-04-29T07:51:59.470Z,13.53
2023-04-29T07:54:27.854Z,13.83
2023-04-29T07:56:56.132Z,15.43
2023-04-29T07:59:24.374Z,11.40
2023-04-29T08:01:53.700Z,14.23
2023-04-29T08:04:22.725Z,11.43
2023-04-29T08:07:00.976Z,13.80
2023-04-29T08:09:30.115Z,12.57
2023-04-29T08:11:58.330Z,11.97
2023-04-29T08:14:26.756Z,10.90
2023-04-29T08:16:55.808Z,11.60
2023-04-29T08:19:24.105Z,10.80
2023-04-29T08:21:52.813Z,8.90
2023-04-29T08:24:22.775Z,8.77
2023-04-29T08:26:51.214Z,8.73
2023-04-29T08:29:19.564Z,8.97
2023-04-29T08:31:48.008Z,9.87
2023-04-29T08:34:16.271Z,10.10
2023-04-29T08:36:44.793Z,9.63
2023-04-29T08:39:12.928Z,14.53
2023-04-29T08:41:44.217Z,10.00
2023-04-29T08:44:12.423Z,12.00
2023-04-29T08:46:41.178Z,10.07
2023-04-29T08:49:09.540Z,10.47
2023-04-29T08:51:37.965Z,11.20
2023-04-29T08:54:06.558Z,17.77
2023-04-29T08:56:35.398Z,9.73
2023-04-29T08:59:08.279Z,10.50
2023-04-29T09:01:41.031Z,10.13
2023-04-29T09:04:14.512Z,11.27
2023-04-29T09:06:42.832Z,12.10
2023-04-29T09:09:11.747Z,10.00
2023-04-29T09:11:39.990Z,10.03
2023-04-29T09:14:09.577Z,9.50
2023-04-29T09:16:39.064Z,14.40
2023-04-29T09:19:07.330Z,11.43
2023-04-29T09:21:35.939Z,10.20
2023-04-29T09:24:04.985Z,12.80
2023-04-29T09:26:44.297Z,9.97
2023-04-29T09:29:16.396Z,10.70
2023-04-29T09:31:44.829Z,10.67
2023-04-29T09:34:13.362Z,10.47
2023-04-29T09:36:45.067Z,10.47
2023-04-29T09:39:15.309Z,11.80
2023-04-29T09:41:59.169Z,8.93
2023-04-29T09:44:32.996Z,12.20
2023-04-29T09:47:04.197Z,9.37
2023-04-29T09:49:35.889Z,13.00
2023-04-29T09:52:05.352Z,11.63
2023-04-29T09:54:36.295Z,12.87
2023-04-29T09:57:07.018Z,8.67
2023-04-29T09:59:37.913Z,13.00
2023-04-29T10:02:11.710Z,8.50
2023-04-29T10:04:42.646Z,8.60
2023-04-29T10:07:15.065Z,9.60
2023-04-29T10:09:43.407Z,11.20
2023-04-29T10:12:12.203Z,12.40
2023-04-29T10:14:46.941Z,8.67
2023-04-29T10:17:20.166Z,9.50
2023-04-29T10:19:52.876Z,12.07
2023-04-29T10:22:30.393Z,9.07
2023-04-29T10:25:00.288Z,9.13
2023-04-29T10:27:30.045Z,7.70
2023-04-29T10:30:02.096Z,10.27
2023-04-29T10:32:39.874Z,9.97
2023-04-29T10:35:19.232Z,8.10
2023-04-29T10:37:49.550Z,8.63
2023-04-29T10:40:21.267Z,8.40
2023-04-29T10:42:51.460Z,6.70
2023-04-29T10:45:31.337Z,14.17
2023-04-29T10:48:18.879Z,6.90
2023-04-29T10:51:03.675Z,9.10
2023-04-29T10:53:32.082Z,9.77
2023-04-29T10:56:05.867Z,8.93
2023-04-29T10:58:45.144Z,12.03
2023-04-29T11:01:16.661Z,22.23
2023-04-29T11:03:50.845Z,12.97
2023-04-29T11:06:19.200Z,8.10
2023-04-29T11:08:47.485Z,6.20
2023-04-29T11:11:16.759Z,8.30
2023-04-29T11:13:47.375Z,6.23
2023-04-29T11:16:17.183Z,5.80
2023-04-29T11:19:07.848Z,5.93
2023-04-29T11:21:37.522Z,11.93
2023-04-29T11:24:07.887Z,5.00
2023-04-29T11:26:36.996Z,4.27
2023-04-29T11:29:08.420Z,5.23
2023-04-29T11:31:39.272Z,4.47
2023-04-29T11:34:08.388Z,3.63
2023-04-29T11:36:37.292Z,4.47
2023-04-29T11:39:06.054Z,3.80
2023-04-29T11:41:35.904Z,4.23
2023-04-29T11:44:05.114Z,4.50
2023-04-29T11:46:33.383Z,3.90
2023-04-29T11:49:03.192Z,3.70
2023-04-29T11:51:32.912Z,4.13
2023-04-29T11:54:01.199Z,4.17
2023-04-29T11:56:29.542Z,3.33
2023-04-29T11:58:59.055Z,3.17
2023-04-29T12:01:27.620Z,4.37
2023-04-29T12:03:59.591Z,3.97
2023-04-29T12:06:31.841Z,4.50
2023-04-29T12:09:01.281Z,3.57
2023-04-29T12:11:29.571Z,4.60
2023-04-29T12:13:58.181Z,4.53
2023-04-29T12:16:29.403Z,4.63
2023-04-29T12:18:58.754Z,4.07
2023-04-29T12:21:27.502Z,5.27
2023-04-29T12:24:00.351Z,3.30
2023-04-29T12:26:30.232Z,4.40
2023-04-29T12:28:59.916Z,4.30
2023-04-29T12:31:35.547Z,3.83
2023-04-29T12:34:08.312Z,2.60
2023-04-29T12:36:38.303Z,4.70
2023-04-29T12:39:10.675Z,3.17
2023-04-29T12:41:39.919Z,3.10
2023-04-29T12:44:08.787Z,4.27
2023-04-29T12:46:38.378Z,3.83
2023-04-29T12:49:07.645Z,3.43
2023-04-29T12:51:36.773Z,4.33
2023-04-29T12:54:07.015Z,3.73
2023-04-29T12:56:36.575Z,3.17
2023-04-29T12:59:08.497Z,5.53
2023-04-29T13:01:36.856Z,4.10
2023-04-29T13:04:06.658Z,4.27
2023-04-29T13:06:39.363Z,3.53
2023-04-29T13:09:17.043Z,3.23
2023-04-29T13:11:48.256Z,2.97
2023-04-29T13:14:16.828Z,3.30
2023-04-29T13:16:45.264Z,3.63
2023-04-29T13:19:32.063Z,4.07
2023-04-29T13:22:01.830Z,3.80
2023-04-29T13:24:30.206Z,5.00
2023-04-29T13:27:00.211Z,3.80
2023-04-29T13:29:28.364Z,3.20
2023-04-29T13:31:56.779Z,2.90
2023-04-29T13:34:25.138Z,3.30
2023-04-29T13:36:53.416Z,3.40
2023-04-29T13:39:23.252Z,6.10
2023-04-29T13:41:51.751Z,3.13
2023-04-29T13:44:32.764Z,3.57
2023-04-29T13:47:07.801Z,3.13
2023-04-29T13:50:09.764Z,3.20
2023-04-29T13:55:38.999Z,3.90
2023-04-29T14:05:26.809Z,3.00
2023-04-29T14:07:55.192Z,2.70
2023-04-29T14:10:23.552Z,3.43
2023-04-29T14:12:51.852Z,4.07
2023-04-29T14:15:21.478Z,3.10
2023-04-29T14:17:50.544Z,2.60
2023-04-29T14:20:18.897Z,3.33
2023-04-29T14:22:47.167Z,3.30
2023-04-29T14:25:15.472Z,3.07
2023-04-29T14:27:43.685Z,2.47
2023-04-29T14:30:12.747Z,3.10
2023-04-29T14:32:42.370Z,3.40
2023-04-29T14:35:11.374Z,3.70
2023-04-29T14:37:40.124Z,4.30
2023-04-29T14:40:09.441Z,3.50
2023-04-29T14:42:37.699Z,3.50
2023-04-29T14:45:07.009Z,3.30
2023-04-29T14:47:35.287Z,3.57
2023-04-29T14:50:05.286Z,4.50
2023-04-29T14:52:33.526Z,3.73
2023-04-29T14:55:01.863Z,3.73
2023-04-29T14:57:30.825Z,4.23
2023-04-29T14:59:59.098Z,5.37
2023-04-29T15:02:27.333Z,4.40
2023-04-29T15:04:55.774Z,4.50
2023-04-29T15:07:25.991Z,5.00
2023-04-29T15:09:54.271Z,14.93
2023-04-29T15:12:23.019Z,5.10
2023-04-29T15:14:52.885Z,5.00
2023-04-29T15:17:21.276Z,5.37
2023-04-29T15:19:49.488Z,5.00
2023-04-29T15:22:18.155Z,5.20
2023-04-29T15:27:17.301Z,5.20
2023-04-29T15:29:45.480Z,4.63
2023-04-29T15:32:13.911Z,4.43
2023-04-29T15:34:42.103Z,3.97
2023-04-29T15:37:10.374Z,6.30
2023-04-29T15:39:38.530Z,5.10
2023-04-29T15:42:09.555Z,5.33
2023-04-29T15:44:37.813Z,4.50
2023-04-29T15:47:06.236Z,5.07
2023-04-29T15:49:34.398Z,5.97
2023-04-29T15:52:02.726Z,5.70
2023-04-29T15:54:31.295Z,4.93
2023-04-29T15:56:59.629Z,5.57
2023-04-29T15:59:29.498Z,4.40
2023-04-29T16:01:57.673Z,5.00
2023-04-29T16:04:26.212Z,4.60
2023-04-29T16:06:54.652Z,5.70
2023-04-29T16:09:23.006Z,4.47
2023-04-29T16:11:53.664Z,6.47
2023-04-29T16:14:21.956Z,5.10
2023-04-29T16:16:51.543Z,9.27
2023-04-29T16:19:19.844Z,8.00
2023-04-29T16:21:48.044Z,8.80
2023-04-29T16:24:16.776Z,6.90
2023-04-29T16:26:45.131Z,7.03
2023-04-29T16:29:13.659Z,4.83
2023-04-29T16:31:41.861Z,5.20
2023-04-29T16:34:11.769Z,6.50
2023-04-29T16:36:40.434Z,6.57
2023-04-29T16:39:09.292Z,6.10
2023-04-29T16:41:37.413Z,6.40
2023-04-29T16:44:05.933Z,4.83
2023-04-29T16:46:34.522Z,5.13
2023-04-29T16:49:03.098Z,5.47
2023-04-29T16:51:33.674Z,6.43
2023-04-29T16:54:02.038Z,5.90
2023-04-29T16:56:30.222Z,6.30
2023-04-29T16:58:58.470Z,8.17
2023-04-29T17:01:26.726Z,6.73
2023-04-29T17:03:54.956Z,5.90
2023-04-29T17:06:23.299Z,7.25
2023-04-29T17:08:53.301Z,7.10
2023-04-29T17:11:21.432Z,6.77
2023-04-29T17:13:50.672Z,7.82
2023-04-29T17:16:19.239Z,9.47
2023-04-29T17:18:47.547Z,10.30
2023-04-29T17:21:15.704Z,16.60
2023-04-29T17:23:44.005Z,11.65
2023-04-29T17:26:13.705Z,9.77
2023-04-29T17:28:41.910Z,7.88
2023-04-29T17:31:10.261Z,8.85
2023-04-29T17:33:39.902Z,8.57
2023-04-29T17:36:08.324Z,9.77
2023-04-29T17:38:36.660Z,21.88
2023-04-29T17:41:04.852Z,15.57
2023-04-29T17:43:35.562Z,18.30
2023-04-29T17:46:03.931Z,20.40
2023-04-29T17:48:32.514Z,18.40
2023-04-29T17:51:00.717Z,9.50
2023-04-29T17:53:29.449Z,9.95
2023-04-29T17:55:58.162Z,7.38
2023-04-29T17:58:29.068Z,6.97
2023-04-29T18:00:59.584Z,8.85
2023-04-29T18:03:30.830Z,8.68
2023-04-29T18:05:59.361Z,9.65
2023-04-29T18:08:27.825Z,17.02
2023-04-29T18:10:56.051Z,13.73
2023-04-29T18:13:26.528Z,11.93
2023-04-29T18:15:55.528Z,8.30
2023-04-29T18:18:26.084Z,8.82
2023-04-29T18:20:54.249Z,9.45
2023-04-29T18:23:22.834Z,7.70
2023-04-29T18:25:51.169Z,7.30
2023-04-29T18:28:25.196Z,7.90
2023-04-29T18:30:54.966Z,7.25
2023-04-29T18:33:26.594Z,9.23
2023-04-29T18:35:55.668Z,8.23
2023-04-29T18:38:24.540Z,8.50
2023-04-29T18:40:53.150Z,9.27
2023-04-29T18:43:24.691Z,10.00
2023-04-29T18:45:53.156Z,10.20
2023-04-29T18:48:21.676Z,12.13
2023-04-29T18:50:52.286Z,10.70
2023-04-29T18:53:20.680Z,11.07
2023-04-29T18:55:48.896Z,12.57
2023-04-29T18:58:17.366Z,18.50
2023-04-29T19:00:45.591Z,14.47
2023-04-29T19:03:14.631Z,10.03
2023-04-29T19:05:42.913Z,11.73
2023-04-29T19:08:16.280Z,12.73
2023-04-29T19:10:45.117Z,13.27
2023-04-29T19:13:13.461Z,15.57
2023-04-29T19:15:41.674Z,12.17
2023-04-29T19:18:09.875Z,12.30
2023-04-29T19:20:38.175Z,10.67
2023-04-29T19:23:07.403Z,11.73
2023-04-29T19:25:37.106Z,13.50
2023-04-29T19:28:05.489Z,11.27
2023-04-29T19:30:34.875Z,14.10
2023-04-29T19:33:03.148Z,13.00
2023-04-29T19:35:31.448Z,13.23
2023-04-29T19:37:59.684Z,13.23
2023-04-29T19:40:27.900Z,12.10
2023-04-29T19:42:57.526Z,11.40
2023-04-29T19:45:26.497Z,8.57
2023-04-29T19:47:55.401Z,11.57
2023-04-29T19:50:24.118Z,15.50
2023-04-29T19:52:52.416Z,11.57
2023-04-29T19:55:20.585Z,12.10
2023-04-29T19:57:48.780Z,11.07
2023-04-29T20:00:18.304Z,11.67
2023-04-29T20:02:50.752Z,12.25
2023-04-29T20:05:19.721Z,12.10
2023-04-29T20:07:47.918Z,11.87
2023-04-29T20:10:16.129Z,11.40
2023-04-29T20:12:44.286Z,12.00
2023-04-29T20:15:12.647Z,13.67
2023-04-29T20:17:42.371Z,13.77
2023-04-29T20:20:11.232Z,13.13
2023-04-29T20:22:39.758Z,13.50
2023-04-29T20:25:08.626Z,15.13
2023-04-29T20:27:36.989Z,13.30
2023-04-29T20:30:06.101Z,15.60
2023-04-29T20:32:34.260Z,15.30
2023-04-29T20:35:04.461Z,11.97
2023-04-29T20:37:32.873Z,11.80
2023-04-29T20:40:01.057Z,12.30
2023-04-29T20:42:29.471Z,12.23
2023-04-29T20:44:57.659Z,15.33
2023-04-29T20:47:25.927Z,16.73
2023-04-29T20:49:54.360Z,16.70
2023-04-29T20:52:24.755Z,15.80
2023-04-29T20:54:53.027Z,15.68
2023-04-29T20:57:21.275Z,14.65
2023-04-29T20:59:49.452Z,15.20
2023-04-29T21:02:17.685Z,14.70
2023-04-29T21:04:46.294Z,15.90
2023-04-29T21:07:14.622Z,16.33
2023-04-29T21:09:44.253Z,17.00
2023-04-29T21:12:14.898Z,15.10
2023-04-29T21:14:44.459Z,14.93
2023-04-29T21:17:12.851Z,14.68
2023-04-29T21:19:41.155Z,14.73
2023-04-29T21:22:09.308Z,15.25
2023-04-29T21:24:37.560Z,13.90
2023-04-29T21:27:07.188Z,14.35
2023-04-29T21:29:40.723Z,16.88
2023-04-29T21:32:09.151Z,15.77
2023-04-29T21:34:37.351Z,15.50
2023-04-29T21:37:05.588Z,17.02
2023-04-29T21:39:33.838Z,18.00
2023-04-29T21:42:03.999Z,16.55
2023-04-29T21:44:34.906Z,16.17
2023-04-29T21:47:04.582Z,15.77
2023-04-29T21:49:33.332Z,15.10
2023-04-29T21:52:01.739Z,14.68
2023-04-29T21:54:30.001Z,15.60
2023-04-29T21:56:58.202Z,15.38
2023-04-29T21:59:26.392Z,15.77
2023-04-29T22:02:00.533Z,14.25
2023-04-29T22:04:29.396Z,14.85
2023-04-29T22:06:59.985Z,15.98
2023-04-29T22:09:28.173Z,17.23
2023-04-29T22:11:56.402Z,16.08
2023-04-29T22:14:24.689Z,17.83
2023-04-29T22:16:52.911Z,16.52
2023-04-29T22:19:22.584Z,18.80
2023-04-29T22:21:50.812Z,15.10
2023-04-29T22:24:18.975Z,15.43
2023-04-29T22:26:47.181Z,14.52
2023-04-29T22:29:15.313Z,15.38
2023-04-29T22:31:43.558Z,15.50
2023-04-29T22:34:11.841Z,15.52
2023-04-29T22:36:41.376Z,15.48
2023-04-29T22:39:09.585Z,13.93
2023-04-29T22:41:37.721Z,13.88
2023-04-29T22:44:06.033Z,13.95
2023-04-29T22:46:34.435Z,13.93
2023-04-29T22:49:03.088Z,15.00
2023-04-29T22:51:31.731Z,15.88
2023-04-29T22:54:01.289Z,13.77
2023-04-29T22:56:29.677Z,14.55
2023-04-29T22:58:57.956Z,16.88
2023-04-29T23:01:26.300Z,15.57
2023-04-29T23:03:54.533Z,17.45
2023-04-29T23:06:23.038Z,18.00
2023-04-29T23:08:51.474Z,16.63
2023-04-29T23:11:21.362Z,18.27
2023-04-29T23:13:49.731Z,19.40
2023-04-29T23:16:17.927Z,19.45
2023-04-29T23:18:46.232Z,17.45
2023-04-29T23:21:14.529Z,19.23
2023-04-29T23:23:42.786Z,16.40
2023-04-29T23:26:11.298Z,19.27
2023-04-29T23:28:40.963Z,19.38
2023-04-29T23:31:09.206Z,20.77
2023-04-29T23:33:37.449Z,18.35
2023-04-29T23:36:06.663Z,19.00
2023-04-29T23:38:34.912Z,19.15
2023-04-29T23:41:03.133Z,17.40
2023-04-29T23:43:31.394Z,19.67
2023-04-29T23:46:01.092Z,19.63
2023-04-29T23:48:29.392Z,20.15
2023-04-29T23:50:57.574Z,17.27
2023-04-29T23:53:25.889Z,18.00
2023-04-29T23:55:54.157Z,17.20
2023-04-29T23:58:22.398Z,15.00
